createdAt,value
2023-11-12T00:02:20.862Z,96052.34
2023-11-12T00:04:48.429Z,96060.09
2023-11-12T00:07:15.199Z,96054.63
2023-11-12T00:09:41.858Z,96063.84
2023-11-12T00:12:09.575Z,96065.22
2023-11-12T00:14:36.216Z,96058.72
2023-11-12T00:17:02.781Z,96050.75
2023-11-12T00:19:32.132Z,96048.69
2023-11-12T00:21:58.629Z,96040.94
2023-11-12T00:24:25.138Z,96041.28
2023-11-12T00:26:51.662Z,96031.13
2023-11-12T00:29:18.452Z,96025.56
2023-11-12T00:31:45.141Z,96028.41
2023-11-12T00:34:11.675Z,96021.69
2023-11-12T00:36:40.113Z,96020.66
2023-11-12T00:39:06.613Z,96019.84
2023-11-12T00:41:33.259Z,96016.22
2023-11-12T00:43:59.828Z,96015.41
2023-11-12T00:46:28.015Z,96020.88
2023-11-12T00:48:54.556Z,96014.94
2023-11-12T00:51:21.226Z,96006.50
2023-11-12T00:53:47.731Z,96015.63
2023-11-12T00:56:15.923Z,96011.75
2023-11-12T00:58:44.093Z,96008.22
2023-11-12T01:01:10.708Z,96006.41
2023-11-12T01:03:37.299Z,96008.00
2023-11-12T01:06:04.153Z,96008.78
2023-11-12T01:08:31.566Z,95999.91
2023-11-12T01:10:59.032Z,96003.56
2023-11-12T01:13:26.107Z,96004.69
2023-11-12T01:15:53.723Z,96010.84
2023-11-12T01:18:21.675Z,96006.16
2023-11-12T01:20:48.852Z,96006.63
2023-11-12T01:23:15.572Z,95991.13
2023-11-12T01:25:42.441Z,95994.31
2023-11-12T01:28:09.604Z,95979.25
2023-11-12T01:30:36.703Z,95987.00
2023-11-12T01:33:05.080Z,95978.91
2023-11-12T01:35:32.109Z,95980.06
2023-11-12T01:37:58.931Z,95972.44
2023-11-12T01:40:26.206Z,95967.09
2023-11-12T01:42:52.774Z,95961.72
2023-11-12T01:45:19.355Z,95959.09
2023-11-12T01:47:46.758Z,95955.22
2023-11-12T01:50:14.417Z,95953.06
2023-11-12T01:52:42.235Z,95948.97
2023-11-12T01:55:10.597Z,95947.38
2023-11-12T01:57:39.458Z,95954.31
2023-11-12T02:00:12.101Z,95949.78
2023-11-12T02:02:39.240Z,95949.88
2023-11-12T02:05:10.067Z,95945.19
2023-11-12T02:07:38.409Z,95941.22
2023-11-12T02:10:13.022Z,95941.53
2023-11-12T02:12:45.061Z,95943.50
2023-11-12T02:15:16.034Z,95941.88
2023-11-12T02:17:44.736Z,95944.59
2023-11-12T02:20:15.188Z,95954.03
2023-11-12T02:22:42.804Z,95952.34
2023-11-12T02:25:10.246Z,95951.66
2023-11-12T02:27:37.139Z,95943.84
2023-11-12T02:30:04.684Z,95945.78
2023-11-12T02:32:33.521Z,95934.25
2023-11-12T02:35:01.383Z,95935.25
2023-11-12T02:37:27.897Z,95935.31
2023-11-12T02:39:54.626Z,95942.31
2023-11-12T02:42:23.041Z,95943.75
2023-11-12T02:44:50.537Z,95943.84
2023-11-12T02:47:18.141Z,95944.41
2023-11-12T02:50:12.681Z,95949.72
2023-11-12T02:52:39.214Z,95947.56
2023-11-12T02:55:06.219Z,95951.06
2023-11-12T02:57:33.765Z,95942.53
2023-11-12T03:00:00.359Z,95943.34
2023-11-12T03:02:26.951Z,95940.78
2023-11-12T03:04:53.505Z,95934.53
2023-11-12T03:07:20.075Z,95935.75
2023-11-12T03:09:49.966Z,95945.44
2023-11-12T03:12:16.828Z,95938.75
2023-11-12T03:14:47.219Z,95929.00
2023-11-12T03:17:14.061Z,95930.03
2023-11-12T03:19:40.828Z,95925.13
2023-11-12T03:22:10.223Z,95922.97
2023-11-12T03:24:37.348Z,95926.16
2023-11-12T03:27:04.736Z,95923.84
2023-11-12T03:29:31.321Z,95916.84
2023-11-12T03:31:59.163Z,95915.56
2023-11-12T03:34:26.069Z,95916.56
2023-11-12T03:36:52.859Z,95916.22
2023-11-12T03:39:19.611Z,95917.16
2023-11-12T03:41:46.213Z,95920.34
2023-11-12T03:44:12.701Z,95913.47
2023-11-12T03:46:39.265Z,95913.44
2023-11-12T03:49:06.070Z,95921.06
2023-11-12T03:51:33.660Z,95916.50
2023-11-12T03:54:03.199Z,95912.78
2023-11-12T03:56:30.923Z,95910.13
2023-11-12T03:58:58.312Z,95908.81
2023-11-12T04:01:25.879Z,95902.63
2023-11-12T04:03:53.491Z,95913.81
2023-11-12T04:06:21.056Z,95906.97
2023-11-12T04:08:47.735Z,95899.41
2023-11-12T04:11:14.398Z,95900.16
2023-11-12T04:13:40.998Z,95886.63
2023-11-12T04:16:08.214Z,95887.53
2023-11-12T04:18:36.068Z,95886.56
2023-11-12T04:21:04.492Z,95888.16
2023-11-12T04:23:31.012Z,95883.22
2023-11-12T04:25:58.573Z,95883.59
2023-11-12T04:28:28.361Z,95888.38
2023-11-12T04:30:56.025Z,95881.34
2023-11-12T04:33:22.734Z,95876.72
2023-11-12T04:35:51.104Z,95883.88
2023-11-12T04:38:18.126Z,95870.56
2023-11-12T04:40:45.605Z,95876.97
2023-11-12T04:43:13.787Z,95869.34
2023-11-12T04:45:40.469Z,95868.88
2023-11-12T04:48:07.259Z,95865.75
2023-11-12T04:50:34.212Z,95859.88
2023-11-12T04:53:01.085Z,95857.50
2023-11-12T04:55:27.646Z,95859.16
2023-11-12T04:57:54.281Z,95854.13
2023-11-12T05:00:21.006Z,95852.03
2023-11-12T05:02:47.676Z,95860.63
2023-11-12T05:05:14.574Z,95854.03
2023-11-12T05:07:41.213Z,95850.72
2023-11-12T05:10:12.453Z,95853.75
2023-11-12T05:12:39.758Z,95858.50
2023-11-12T05:15:10.422Z,95858.00
2023-11-12T05:17:37.412Z,95843.41
2023-11-12T05:20:05.284Z,95844.81
2023-11-12T05:22:33.024Z,95840.50
2023-11-12T05:24:59.561Z,95839.19
2023-11-12T05:27:26.099Z,95838.50
2023-11-12T05:29:53.411Z,95828.63
2023-11-12T05:32:20.925Z,95824.81
2023-11-12T05:34:47.467Z,95834.31
2023-11-12T05:37:14.084Z,95836.97
2023-11-12T05:39:40.676Z,95835.72
2023-11-12T05:42:07.303Z,95830.16
2023-11-12T05:44:33.876Z,95835.28
2023-11-12T05:47:00.689Z,95834.22
2023-11-12T05:49:27.238Z,95839.84
2023-11-12T05:51:53.770Z,95848.47
2023-11-12T05:54:20.274Z,95838.31
2023-11-12T05:56:46.804Z,95841.53
2023-11-12T05:59:13.339Z,95843.13
2023-11-12T06:01:39.851Z,95849.47
2023-11-12T06:04:06.579Z,95844.97
2023-11-12T06:06:33.230Z,95849.75
2023-11-12T06:08:59.780Z,95839.91
2023-11-12T06:11:26.622Z,95837.53
2023-11-12T06:13:53.313Z,95834.53
2023-11-12T06:16:20.366Z,95837.16
2023-11-12T06:18:47.154Z,95835.53
2023-11-12T06:21:14.419Z,95832.81
2023-11-12T06:23:44.971Z,95833.63
2023-11-12T06:26:12.140Z,95831.09
2023-11-12T06:28:38.981Z,95831.34
2023-11-12T06:31:08.328Z,95830.97
2023-11-12T06:33:34.887Z,95827.38
2023-11-12T06:36:02.577Z,95834.19
2023-11-12T06:38:29.101Z,95844.44
2023-11-12T06:40:55.632Z,95843.22
2023-11-12T06:43:22.150Z,95851.03
2023-11-12T06:45:48.695Z,95848.78
2023-11-12T06:48:15.406Z,95864.41
2023-11-12T06:50:41.966Z,95860.44
2023-11-12T06:53:10.005Z,95863.22
2023-11-12T06:55:36.580Z,95871.63
2023-11-12T06:58:03.119Z,95867.59
2023-11-12T07:00:29.664Z,95873.44
2023-11-12T07:02:56.503Z,95882.84
2023-11-12T07:05:23.457Z,95878.44
2023-11-12T07:07:49.990Z,95882.47
2023-11-12T07:10:16.588Z,95889.25
2023-11-12T07:12:44.076Z,95886.78
2023-11-12T07:15:10.961Z,95892.31
2023-11-12T07:17:37.608Z,95891.66
2023-11-12T07:20:06.562Z,95891.16
2023-11-12T07:22:36.879Z,95893.97
2023-11-12T07:25:04.675Z,95886.97
2023-11-12T07:27:33.198Z,95893.25
2023-11-12T07:30:00.699Z,95886.78
2023-11-12T07:32:27.199Z,95893.53
2023-11-12T07:34:53.891Z,95900.16
2023-11-12T07:37:20.913Z,95903.56
2023-11-12T07:39:47.607Z,95900.94
2023-11-12T07:42:14.278Z,95895.88
2023-11-12T07:44:41.003Z,95898.66
2023-11-12T07:47:07.738Z,95901.53
2023-11-12T07:49:34.350Z,95900.69
2023-11-12T07:52:01.789Z,95900.38
2023-11-12T07:54:28.574Z,95899.38
2023-11-12T07:56:55.263Z,95899.72
2023-11-12T07:59:21.889Z,95907.06
2023-11-12T08:01:49.345Z,95898.44
2023-11-12T08:04:16.522Z,95902.50
2023-11-12T08:06:47.170Z,95898.44
2023-11-12T08:09:13.886Z,95896.66
2023-11-12T08:11:43.947Z,95899.06
2023-11-12T08:14:10.626Z,95896.00
2023-11-12T08:16:37.975Z,95907.78
2023-11-12T08:19:04.851Z,95898.34
2023-11-12T08:21:31.481Z,95910.13
2023-11-12T08:23:59.972Z,95907.63
2023-11-12T08:26:28.788Z,95919.41
2023-11-12T08:28:57.591Z,95920.78
2023-11-12T08:31:27.185Z,95921.72
2023-11-12T08:33:54.179Z,95927.00
2023-11-12T08:36:20.892Z,95918.59
2023-11-12T08:38:48.552Z,95921.06
2023-11-12T08:41:15.179Z,95928.81
2023-11-12T08:43:45.357Z,95931.22
2023-11-12T08:46:12.997Z,95924.22
2023-11-12T08:48:44.049Z,95923.03
2023-11-12T08:51:11.455Z,95920.00
2023-11-12T08:53:41.074Z,95922.22
2023-11-12T08:56:09.364Z,95928.13
2023-11-12T08:58:36.380Z,95923.16
2023-11-12T09:01:05.372Z,95925.56
2023-11-12T09:03:32.951Z,95920.22
2023-11-12T09:05:59.575Z,95927.06
2023-11-12T09:08:26.158Z,95927.91
2023-11-12T09:10:52.677Z,95922.66
2023-11-12T09:13:19.250Z,95928.97
2023-11-12T09:15:45.874Z,95925.81
2023-11-12T09:18:13.409Z,95923.06
2023-11-12T09:20:40.006Z,95929.28
2023-11-12T09:23:06.603Z,95929.97
2023-11-12T09:25:33.287Z,95940.66
2023-11-12T09:28:00.112Z,95940.03
2023-11-12T09:30:33.788Z,95938.56
2023-11-12T09:33:07.873Z,95945.50
2023-11-12T09:35:34.511Z,95942.41
2023-11-12T09:38:01.067Z,95945.34
2023-11-12T09:40:32.305Z,95948.25
2023-11-12T09:42:59.706Z,95940.75
2023-11-12T09:45:29.974Z,95938.25
2023-11-12T09:48:04.549Z,95936.06
2023-11-12T09:50:32.434Z,95937.41
2023-11-12T09:53:04.281Z,95940.38
2023-11-12T09:55:31.926Z,95940.19
2023-11-12T09:57:59.066Z,95936.53
2023-11-12T10:00:25.745Z,95941.25
2023-11-12T10:02:53.411Z,95945.41
2023-11-12T10:05:20.151Z,95937.41
2023-11-12T10:07:47.542Z,95943.56
2023-11-12T10:10:21.811Z,95933.09
2023-11-12T10:12:49.319Z,95933.63
2023-11-12T10:15:22.382Z,95929.38
2023-11-12T10:17:48.953Z,95933.22
2023-11-12T10:20:22.334Z,95934.28
2023-11-12T10:22:50.435Z,95925.00
2023-11-12T10:25:43.904Z,95935.44
2023-11-12T10:28:12.410Z,95935.22
2023-11-12T10:30:40.529Z,95935.22
2023-11-12T10:33:29.109Z,95924.66
2023-11-12T10:35:56.816Z,95939.63
2023-11-12T10:38:24.731Z,95937.78
2023-11-12T10:41:03.245Z,95934.47
2023-11-12T10:43:31.535Z,95932.59
2023-11-12T10:46:04.686Z,95929.41
2023-11-12T10:48:36.686Z,95929.97
2023-11-12T10:51:06.572Z,95924.03
2023-11-12T10:53:34.677Z,95928.19
2023-11-12T10:56:02.390Z,95927.59
2023-11-12T10:58:32.370Z,95929.63
2023-11-12T11:01:02.572Z,95920.44
2023-11-12T11:03:31.258Z,95922.53
2023-11-12T11:06:00.870Z,95912.63
2023-11-12T11:08:31.873Z,95913.28
2023-11-12T11:11:00.349Z,95919.75
2023-11-12T11:13:28.253Z,95889.56
2023-11-12T11:15:59.306Z,95933.25
2023-11-12T11:18:32.011Z,95935.34
2023-11-12T11:21:09.989Z,95919.88
2023-11-12T11:23:46.447Z,95886.63
2023-11-12T11:26:24.935Z,95877.03
2023-11-12T11:29:06.925Z,95906.31
2023-11-12T11:31:47.012Z,95929.69
2023-11-12T11:34:14.454Z,95948.28
2023-11-12T11:36:56.842Z,95880.03
2023-11-12T11:39:27.407Z,95934.94
2023-11-12T11:41:56.854Z,95940.63
2023-11-12T11:44:32.898Z,95963.19
2023-11-12T11:47:22.985Z,95955.50
2023-11-12T11:49:52.461Z,95963.09
2023-11-12T11:52:25.396Z,95961.22
2023-11-12T11:55:09.497Z,95965.19
2023-11-12T11:57:47.113Z,95973.09
2023-11-12T12:00:16.486Z,95960.69
2023-11-12T12:02:45.331Z,95968.66
2023-11-12T12:05:16.341Z,95968.09
2023-11-12T12:07:47.160Z,95977.34
2023-11-12T12:10:28.091Z,95976.16
2023-11-12T12:12:55.324Z,95972.16
2023-11-12T12:15:22.299Z,95971.22
2023-11-12T12:17:49.038Z,95970.34
2023-11-12T12:20:15.599Z,95958.44
2023-11-12T12:22:42.817Z,95963.50
2023-11-12T12:25:10.424Z,95958.66
2023-11-12T12:27:38.569Z,95964.06
2023-11-12T12:30:09.163Z,95969.69
2023-11-12T12:32:38.015Z,95968.34
2023-11-12T12:35:07.747Z,95968.91
2023-11-12T12:37:34.646Z,95967.88
2023-11-12T12:40:04.807Z,95970.75
2023-11-12T12:42:32.031Z,95965.16
2023-11-12T12:44:59.092Z,95969.72
2023-11-12T12:47:43.782Z,95966.34
2023-11-12T12:50:34.473Z,95968.75
2023-11-12T12:53:14.309Z,95970.56
2023-11-12T12:55:41.871Z,95975.31
2023-11-12T12:58:08.514Z,95962.81
2023-11-12T13:00:37.158Z,95958.38
2023-11-12T13:03:04.335Z,95960.78
2023-11-12T13:05:31.116Z,95957.69
2023-11-12T13:07:57.930Z,95960.53
2023-11-12T13:10:24.894Z,95960.50
2023-11-12T13:12:53.191Z,95959.50
2023-11-12T13:15:21.994Z,95963.94
2023-11-12T13:17:49.350Z,95966.50
2023-11-12T13:20:15.989Z,95968.41
2023-11-12T13:22:42.820Z,95968.19
2023-11-12T13:25:13.539Z,95966.97
2023-11-12T13:27:40.467Z,95962.56
2023-11-12T13:30:08.134Z,95962.28
2023-11-12T13:32:35.433Z,95962.63
2023-11-12T13:35:02.614Z,95968.22
2023-11-12T13:37:31.130Z,95967.47
2023-11-12T13:39:58.046Z,95964.97
2023-11-12T13:42:24.797Z,95963.88
2023-11-12T13:44:54.670Z,95963.63
2023-11-12T13:47:23.754Z,95961.72
2023-11-12T13:49:50.834Z,95963.69
2023-11-12T13:52:18.500Z,95966.47
2023-11-12T13:54:45.870Z,95972.59
2023-11-12T13:57:13.521Z,95976.34
2023-11-12T13:59:41.294Z,95981.91
2023-11-12T14:02:09.550Z,95975.28
2023-11-12T14:04:36.228Z,95972.66
2023-11-12T14:07:05.383Z,95973.38
2023-11-12T14:09:34.393Z,95977.47
2023-11-12T14:12:08.767Z,95981.13
2023-11-12T14:14:36.001Z,95976.72
2023-11-12T14:17:08.645Z,95975.47
2023-11-12T14:19:37.053Z,95971.66
2023-11-12T14:22:05.546Z,95969.81
2023-11-12T14:24:32.390Z,95978.28
2023-11-12T14:26:59.199Z,95974.06
2023-11-12T14:29:28.240Z,95977.25
2023-11-12T14:31:54.856Z,95972.03
2023-11-12T14:34:22.669Z,95969.13
2023-11-12T14:36:51.401Z,95969.09
2023-11-12T14:39:23.976Z,95973.47
2023-11-12T14:41:51.065Z,95973.94
2023-11-12T14:44:17.969Z,95972.75
2023-11-12T14:46:45.363Z,95971.69
2023-11-12T14:49:12.037Z,95976.78
2023-11-12T14:51:42.645Z,95981.47
2023-11-12T14:54:09.382Z,95980.13
2023-11-12T14:56:39.325Z,95989.81
2023-11-12T14:59:05.879Z,95992.94
2023-11-12T15:01:32.675Z,95989.50
2023-11-12T15:04:00.143Z,95995.44
2023-11-12T15:06:27.004Z,95993.63
2023-11-12T15:08:53.580Z,95996.44
2023-11-12T15:11:20.427Z,95992.72
2023-11-12T15:13:47.168Z,95992.72
2023-11-12T15:16:21.678Z,95985.44
2023-11-12T15:18:49.028Z,95982.91
2023-11-12T15:21:15.743Z,95977.72
2023-11-12T15:23:42.874Z,95985.38
2023-11-12T15:26:15.821Z,95980.84
2023-11-12T15:28:43.288Z,95975.53
2023-11-12T15:31:12.200Z,95972.63
2023-11-12T15:33:39.660Z,95971.59
2023-11-12T15:36:08.317Z,95974.81
2023-11-12T15:38:35.120Z,95972.66
2023-11-12T15:41:02.884Z,95984.78
2023-11-12T15:43:29.924Z,95980.56
2023-11-12T15:45:57.822Z,95978.91
2023-11-12T15:48:24.891Z,95979.81
2023-11-12T15:50:51.414Z,95981.75
2023-11-12T15:53:21.499Z,95977.47
2023-11-12T15:55:48.392Z,95981.59
2023-11-12T15:58:14.974Z,95983.31
2023-11-12T16:00:42.857Z,95986.00
2023-11-12T16:03:16.677Z,95976.69
2023-11-12T16:05:45.438Z,95991.38
2023-11-12T16:08:13.098Z,95986.28
2023-11-12T16:10:39.784Z,95983.75
2023-11-12T16:13:06.357Z,95989.31
2023-11-12T16:15:34.429Z,95985.34
2023-11-12T16:18:01.260Z,95990.28
2023-11-12T16:20:27.952Z,95997.75
2023-11-12T16:22:54.488Z,95998.38
2023-11-12T16:25:21.070Z,96000.22
2023-11-12T16:27:47.692Z,96001.34
2023-11-12T16:30:14.576Z,96005.63
2023-11-12T16:32:42.433Z,96003.50
2023-11-12T16:35:12.796Z,95997.59
2023-11-12T16:37:46.381Z,95995.44
2023-11-12T16:40:14.272Z,96004.03
2023-11-12T16:42:44.695Z,95995.84
2023-11-12T16:45:12.530Z,95996.34
2023-11-12T16:47:39.692Z,96001.34
2023-11-12T16:50:08.238Z,95998.09
2023-11-12T16:52:38.344Z,96003.19
2023-11-12T16:55:06.087Z,96003.28
2023-11-12T16:57:33.094Z,96008.94
2023-11-12T17:00:00.555Z,96011.06
2023-11-12T17:02:29.086Z,96011.41
2023-11-12T17:04:56.285Z,96010.50
2023-11-12T17:07:23.085Z,96016.41
2023-11-12T17:09:49.792Z,96017.22
2023-11-12T17:12:16.622Z,96009.41
2023-11-12T17:14:43.476Z,96017.38
2023-11-12T17:17:10.375Z,96022.22
2023-11-12T17:19:36.991Z,96028.13
2023-11-12T17:22:03.536Z,96025.81
2023-11-12T17:24:30.172Z,96032.97
2023-11-12T17:27:00.532Z,96029.94
2023-11-12T17:29:28.147Z,96027.31
2023-11-12T17:31:57.553Z,96034.66
2023-11-12T17:34:24.196Z,96036.63
2023-11-12T17:36:50.832Z,96040.19
2023-11-12T17:39:17.664Z,96047.69
2023-11-12T17:41:47.902Z,96048.63
2023-11-12T17:44:15.294Z,96053.47
2023-11-12T17:46:46.241Z,96057.44
2023-11-12T17:49:13.361Z,96067.00
2023-11-12T17:51:40.193Z,96065.53
2023-11-12T17:54:07.318Z,96066.78
2023-11-12T17:56:38.036Z,96074.81
2023-11-12T17:59:04.664Z,96076.53
2023-11-12T18:01:31.233Z,96084.84
2023-11-12T18:03:59.871Z,96079.03
2023-11-12T18:06:26.803Z,96088.84
2023-11-12T18:08:53.415Z,96096.75
2023-11-12T18:11:20.136Z,96086.81
2023-11-12T18:13:46.669Z,96094.56
2023-11-12T18:16:13.342Z,96095.91
2023-11-12T18:18:42.162Z,96096.84
2023-11-12T18:21:09.222Z,96094.50
2023-11-12T18:23:35.846Z,96089.63
2023-11-12T18:26:02.805Z,96090.47
2023-11-12T18:28:29.802Z,96098.38
2023-11-12T18:30:56.954Z,96100.84
2023-11-12T18:33:23.656Z,96098.72
2023-11-12T18:35:50.329Z,96104.22
2023-11-12T18:38:18.788Z,96100.78
2023-11-12T18:40:48.416Z,96105.91
2023-11-12T18:43:16.647Z,96096.56
2023-11-12T18:45:43.558Z,96100.09
2023-11-12T18:48:11.557Z,96098.97
2023-11-12T18:50:38.693Z,96096.34
2023-11-12T18:53:05.487Z,96099.41
2023-11-12T18:55:32.442Z,96096.91
2023-11-12T18:57:59.411Z,96102.28
2023-11-12T19:00:26.002Z,96101.81
2023-11-12T19:02:54.400Z,96101.81
2023-11-12T19:05:21.744Z,96096.44
2023-11-12T19:07:48.538Z,96101.94
2023-11-12T19:10:15.462Z,96097.59
2023-11-12T19:12:42.544Z,96108.91
2023-11-12T19:15:10.415Z,96108.66
2023-11-12T19:17:38.566Z,96112.19
2023-11-12T19:20:06.414Z,96112.19
2023-11-12T19:22:33.375Z,96121.00
2023-11-12T19:25:00.500Z,96122.50
2023-11-12T19:27:27.836Z,96122.16
2023-11-12T19:30:02.681Z,96118.03
2023-11-12T19:32:38.357Z,96131.28
2023-11-12T19:35:05.440Z,96128.66
2023-11-12T19:37:33.552Z,96128.19
2023-11-12T19:40:00.529Z,96134.59
2023-11-12T19:42:29.097Z,96139.84
2023-11-12T19:44:56.687Z,96138.69
2023-11-12T19:47:23.779Z,96135.28
2023-11-12T19:49:50.450Z,96132.88
2023-11-12T19:52:18.144Z,96126.94
2023-11-12T19:54:45.115Z,96131.03
2023-11-12T19:57:11.897Z,96134.13
2023-11-12T19:59:38.605Z,96131.28
2023-11-12T20:02:05.743Z,96137.97
2023-11-12T20:04:32.573Z,96151.22
2023-11-12T20:07:00.463Z,96159.19
2023-11-12T20:09:27.133Z,96160.00
2023-11-12T20:11:53.714Z,96158.34
2023-11-12T20:14:20.534Z,96154.75
2023-11-12T20:16:48.555Z,96159.06
2023-11-12T20:19:20.163Z,96165.28
2023-11-12T20:21:49.752Z,96164.41
2023-11-12T20:24:17.353Z,96166.91
2023-11-12T20:26:51.409Z,96174.97
2023-11-12T20:29:21.941Z,96166.16
2023-11-12T20:31:55.505Z,96169.50
2023-11-12T20:34:23.677Z,96168.03
2023-11-12T20:36:51.614Z,96169.81
2023-11-12T20:39:18.567Z,96167.34
2023-11-12T20:41:46.398Z,96154.47
2023-11-12T20:44:14.490Z,96158.53
2023-11-12T20:46:48.026Z,96164.97
2023-11-12T20:49:19.329Z,96178.56
2023-11-12T20:51:47.712Z,96176.06
2023-11-12T20:54:17.108Z,96173.28
2023-11-12T20:56:43.816Z,96173.03
2023-11-12T20:59:11.077Z,96163.25
2023-11-12T21:01:38.346Z,96169.88
2023-11-12T21:04:08.704Z,96172.13
2023-11-12T21:06:38.995Z,96170.78
2023-11-12T21:09:39.996Z,96167.31
2023-11-12T21:12:07.366Z,96156.41
2023-11-12T21:14:34.555Z,96169.81
2023-11-12T21:17:01.172Z,96172.06
2023-11-12T21:19:27.915Z,96175.50
2023-11-12T21:21:54.516Z,96181.00
2023-11-12T21:24:21.061Z,96179.19
2023-11-12T21:26:48.052Z,96183.63
2023-11-12T21:29:14.561Z,96170.09
2023-11-12T21:31:46.388Z,96165.72
2023-11-12T21:34:14.979Z,96162.81
2023-11-12T21:36:41.579Z,96148.91
2023-11-12T21:39:10.368Z,96147.97
2023-11-12T21:41:38.329Z,96152.22
2023-11-12T21:44:08.535Z,96153.88
2023-11-12T21:46:35.626Z,96150.81
2023-11-12T21:49:02.317Z,96153.56
2023-11-12T21:51:28.885Z,96154.22
2023-11-12T21:53:55.429Z,96162.00
2023-11-12T21:56:21.972Z,96163.13
2023-11-12T21:58:49.859Z,96165.94
2023-11-12T22:01:16.542Z,96165.59
2023-11-12T22:03:43.258Z,96175.28
2023-11-12T22:06:09.874Z,96177.69
2023-11-12T22:08:36.492Z,96188.16
2023-11-12T22:11:03.486Z,96194.56
2023-11-12T22:13:32.118Z,96199.66
2023-11-12T22:15:58.819Z,96210.84
2023-11-12T22:18:25.428Z,96205.47
2023-11-12T22:20:52.588Z,96217.75
2023-11-12T22:23:19.424Z,96217.19
2023-11-12T22:25:45.922Z,96224.91
2023-11-12T22:28:12.681Z,96230.50
2023-11-12T22:30:40.288Z,96226.56
2023-11-12T22:33:07.064Z,96226.50
2023-11-12T22:35:33.603Z,96224.59
2023-11-12T22:38:00.108Z,96230.19
2023-11-12T22:40:26.694Z,96231.16
2023-11-12T22:42:53.704Z,96234.91
2023-11-12T22:45:23.551Z,96248.13
2023-11-12T22:47:50.198Z,96242.88
2023-11-12T22:50:22.125Z,96243.09
2023-11-12T22:52:48.907Z,96265.56
2023-11-12T22:55:16.159Z,96265.06
2023-11-12T22:57:44.617Z,96256.19
2023-11-12T23:00:40.510Z,96265.72
2023-11-12T23:03:10.950Z,96258.09
2023-11-12T23:05:37.652Z,96263.47
2023-11-12T23:08:07.370Z,96265.44
2023-11-12T23:10:38.210Z,96266.88
2023-11-12T23:13:05.014Z,96265.78
2023-11-12T23:15:32.721Z,96258.59
2023-11-12T23:18:02.179Z,96253.47
2023-11-12T23:20:29.511Z,96248.00
2023-11-12T23:22:56.062Z,96254.00
2023-11-12T23:25:22.692Z,96257.56
2023-11-12T23:27:49.272Z,96260.53
2023-11-12T23:30:15.903Z,96256.63
2023-11-12T23:32:45.532Z,96254.66
2023-11-12T23:35:12.259Z,96267.91
2023-11-12T23:37:38.992Z,96274.31
2023-11-12T23:40:06.272Z,96269.28
2023-11-12T23:42:32.843Z,96266.31
2023-11-12T23:44:59.390Z,96265.22
2023-11-12T23:47:25.991Z,96265.00
2023-11-12T23:49:52.587Z,96270.31
2023-11-12T23:52:20.040Z,96278.66
2023-11-12T23:54:46.765Z,96265.66
2023-11-12T23:57:14.227Z,96262.81
2023-11-12T23:59:42.310Z,96251.31
